sensor_id;sensor_type;location;lat;lon;timestamp;pressure;altitude;pressure_sealevel;temperature;humidity
10881;BME280;5493;48.884;8.338;2023-02-13T00:01:35;102147.53;;;6.07;100.00
10881;BME280;5493;48.884;8.338;2023-02-13T00:04:01;102146.16;;;5.74;100.00
10881;BME280;5493;48.884;8.338;2023-02-13T00:06:28;102142.50;;;5.56;100.00
10881;BME280;5493;48.884;8.338;2023-02-13T00:08:55;102139.69;;;5.67;100.00
10881;BME280;5493;48.884;8.338;2023-02-13T00:11:23;102145.44;;;5.63;100.00
10881;BME280;5493;48.884;8.338;2023-02-13T00:13:49;102142.22;;;5.59;100.00
10881;BME280;5493;48.884;8.338;2023-02-13T00:16:16;102138.25;;;5.44;100.00
10881;BME280;5493;48.884;8.338;2023-02-13T00:18:42;102144.88;;;5.40;100.00
10881;BME280;5493;48.884;8.338;2023-02-13T00:21:11;102144.44;;;5.54;100.00
10881;BME280;5493;48.884;8.338;2023-02-13T00:23:39;102145.03;;;5.67;100.00
10881;BME280;5493;48.884;8.338;2023-02-13T00:26:07;102137.97;;;5.66;100.00
10881;BME280;5493;48.884;8.338;2023-02-13T00:28:35;102142.78;;;5.53;100.00
10881;BME280;5493;48.884;8.338;2023-02-13T00:31:03;102139.53;;;5.59;100.00
10881;BME280;5493;48.884;8.338;2023-02-13T00:33:30;102147.41;;;5.51;100.00
10881;BME280;5493;48.884;8.338;2023-02-13T00:36:04;102140.78;;;5.36;100.00
10881;BME280;5493;48.884;8.338;2023-02-13T00:38:31;102139.53;;;5.30;100.00
10881;BME280;5493;48.884;8.338;2023-02-13T00:40:58;102141.50;;;5.38;100.00
10881;BME280;5493;48.884;8.338;2023-02-13T00:43:25;102142.19;;;5.40;100.00
10881;BME280;5493;48.884;8.338;2023-02-13T00:45:53;102136.56;;;5.43;100.00
10881;BME280;5493;48.884;8.338;2023-02-13T00:48:19;102134.59;;;5.45;100.00
10881;BME280;5493;48.884;8.338;2023-02-13T00:50:46;102133.75;;;5.44;100.00
10881;BME280;5493;48.884;8.338;2023-02-13T00:53:13;102133.63;;;5.36;100.00
10881;BME280;5493;48.884;8.338;2023-02-13T00:55:39;102133.88;;;5.43;100.00
10881;BME280;5493;48.884;8.338;2023-02-13T00:58:06;102138.13;;;5.17;100.00
10881;BME280;5493;48.884;8.338;2023-02-13T01:00:32;102135.31;;;5.28;100.00
10881;BME280;5493;48.884;8.338;2023-02-13T01:03:00;102145.13;;;5.18;100.00
10881;BME280;5493;48.884;8.338;2023-02-13T01:05:27;102143.31;;;5.18;100.00
10881;BME280;5493;48.884;8.338;2023-02-13T01:07:53;102152.47;;;5.16;100.00
10881;BME280;5493;48.884;8.338;2023-02-13T01:10:20;102143.72;;;5.04;100.00
10881;BME280;5493;48.884;8.338;2023-02-13T01:12:46;102135.13;;;5.10;100.00
10881;BME280;5493;48.884;8.338;2023-02-13T01:15:13;102150.91;;;5.32;100.00
10881;BME280;5493;48.884;8.338;2023-02-13T01:17:39;102144.88;;;5.69;100.00
10881;BME280;5493;48.884;8.338;2023-02-13T01:20:09;102143.59;;;5.73;100.00
10881;BME280;5493;48.884;8.338;2023-02-13T01:22:38;102148.56;;;5.68;100.00
10881;BME280;5493;48.884;8.338;2023-02-13T01:25:06;102148.38;;;5.69;100.00
10881;BME280;5493;48.884;8.338;2023-02-13T01:27:32;102149.66;;;5.65;100.00
10881;BME280;5493;48.884;8.338;2023-02-13T01:29:59;102148.66;;;5.76;100.00
10881;BME280;5493;48.884;8.338;2023-02-13T01:32:26;102141.34;;;5.59;100.00
10881;BME280;5493;48.884;8.338;2023-02-13T01:34:52;102147.69;;;5.29;100.00
10881;BME280;5493;48.884;8.338;2023-02-13T01:37:20;102150.38;;;5.58;100.00
10881;BME280;5493;48.884;8.338;2023-02-13T01:39:46;102152.06;;;5.59;100.00
10881;BME280;5493;48.884;8.338;2023-02-13T01:42:15;102150.09;;;5.51;100.00
10881;BME280;5493;48.884;8.338;2023-02-13T01:44:47;102150.66;;;5.26;100.00
10881;BME280;5493;48.884;8.338;2023-02-13T01:47:19;102148.53;;;5.29;100.00
10881;BME280;5493;48.884;8.338;2023-02-13T01:49:48;102153.88;;;5.39;100.00
10881;BME280;5493;48.884;8.338;2023-02-13T01:52:16;102158.25;;;5.30;100.00
10881;BME280;5493;48.884;8.338;2023-02-13T01:54:45;102147.53;;;5.11;100.00
10881;BME280;5493;48.884;8.338;2023-02-13T01:57:14;102149.91;;;4.95;100.00
10881;BME280;5493;48.884;8.338;2023-02-13T01:59:45;102151.97;;;4.82;100.00
10881;BME280;5493;48.884;8.338;2023-02-13T02:02:14;102147.84;;;4.38;100.00
10881;BME280;5493;48.884;8.338;2023-02-13T02:04:42;102154.13;;;4.48;100.00
10881;BME280;5493;48.884;8.338;2023-02-13T02:07:14;102151.84;;;4.43;100.00
10881;BME280;5493;48.884;8.338;2023-02-13T02:09:45;102150.31;;;4.51;100.00
10881;BME280;5493;48.884;8.338;2023-02-13T02:12:17;102159.13;;;4.81;100.00
10881;BME280;5493;48.884;8.338;2023-02-13T02:14:48;102157.97;;;4.74;100.00
10881;BME280;5493;48.884;8.338;2023-02-13T02:17:15;102149.84;;;4.85;100.00
10881;BME280;5493;48.884;8.338;2023-02-13T02:19:48;102159.09;;;4.72;100.00
10881;BME280;5493;48.884;8.338;2023-02-13T02:22:45;102160.34;;;4.58;100.00
10881;BME280;5493;48.884;8.338;2023-02-13T02:28:45;102161.72;;;4.22;100.00
10881;BME280;5493;48.884;8.338;2023-02-13T02:31:54;102155.44;;;4.33;100.00
10881;BME280;5493;48.884;8.338;2023-02-13T02:34:31;102155.53;;;4.22;100.00
10881;BME280;5493;48.884;8.338;2023-02-13T02:37:07;102154.59;;;4.32;100.00
10881;BME280;5493;48.884;8.338;2023-02-13T02:39:47;102156.28;;;4.33;100.00
10881;BME280;5493;48.884;8.338;2023-02-13T02:42:27;102150.75;;;4.25;100.00
10881;BME280;5493;48.884;8.338;2023-02-13T02:45:03;102150.13;;;4.42;100.00
10881;BME280;5493;48.884;8.338;2023-02-13T02:47:40;102148.91;;;4.46;100.00
10881;BME280;5493;48.884;8.338;2023-02-13T02:50:33;102148.75;;;4.18;100.00
10881;BME280;5493;48.884;8.338;2023-02-13T02:53:11;102145.72;;;3.81;100.00
10881;BME280;5493;48.884;8.338;2023-02-13T02:55:43;102146.44;;;4.04;100.00
10881;BME280;5493;48.884;8.338;2023-02-13T02:58:16;102139.47;;;4.12;100.00
10881;BME280;5493;48.884;8.338;2023-02-13T03:01:04;102146.13;;;3.97;100.00
10881;BME280;5493;48.884;8.338;2023-02-13T03:03:51;102154.97;;;3.97;100.00
10881;BME280;5493;48.884;8.338;2023-02-13T03:06:43;102148.53;;;3.79;100.00
10881;BME280;5493;48.884;8.338;2023-02-13T03:09:14;102153.69;;;4.02;100.00
10881;BME280;5493;48.884;8.338;2023-02-13T03:12:00;102153.97;;;3.98;100.00
10881;BME280;5493;48.884;8.338;2023-02-13T03:14:44;102156.38;;;4.02;100.00
10881;BME280;5493;48.884;8.338;2023-02-13T03:17:13;102153.66;;;3.92;100.00
10881;BME280;5493;48.884;8.338;2023-02-13T03:20:11;102150.41;;;3.88;100.00
10881;BME280;5493;48.884;8.338;2023-02-13T03:23:05;102156.72;;;3.87;100.00
10881;BME280;5493;48.884;8.338;2023-02-13T03:25:37;102160.53;;;3.94;100.00
10881;BME280;5493;48.884;8.338;2023-02-13T03:28:12;102158.47;;;3.98;100.00
10881;BME280;5493;48.884;8.338;2023-02-13T03:31:07;102171.56;;;4.01;100.00
10881;BME280;5493;48.884;8.338;2023-02-13T03:33:47;102177.81;;;4.11;100.00
10881;BME280;5493;48.884;8.338;2023-02-13T03:36:28;102171.94;;;3.96;100.00
10881;BME280;5493;48.884;8.338;2023-02-13T03:39:19;102181.19;;;3.72;100.00
10881;BME280;5493;48.884;8.338;2023-02-13T03:41:51;102188.38;;;3.60;100.00
10881;BME280;5493;48.884;8.338;2023-02-13T03:44:23;102191.91;;;3.61;100.00
10881;BME280;5493;48.884;8.338;2023-02-13T03:46:57;102197.38;;;3.80;100.00
10881;BME280;5493;48.884;8.338;2023-02-13T03:49:27;102202.13;;;3.76;100.00
10881;BME280;5493;48.884;8.338;2023-02-13T03:52:17;102212.53;;;3.47;100.00
10881;BME280;5493;48.884;8.338;2023-02-13T03:54:49;102212.06;;;3.54;100.00
10881;BME280;5493;48.884;8.338;2023-02-13T03:57:37;102217.19;;;3.34;100.00
10881;BME280;5493;48.884;8.338;2023-02-13T04:00:24;102215.69;;;3.10;100.00
10881;BME280;5493;48.884;8.338;2023-02-13T04:02:59;102212.50;;;3.16;100.00
10881;BME280;5493;48.884;8.338;2023-02-13T04:05:31;102218.78;;;3.26;100.00
10881;BME280;5493;48.884;8.338;2023-02-13T04:08:03;102221.38;;;3.16;100.00
10881;BME280;5493;48.884;8.338;2023-02-13T04:10:32;102220.16;;;3.09;100.00
10881;BME280;5493;48.884;8.338;2023-02-13T04:13:03;102215.19;;;3.16;100.00
10881;BME280;5493;48.884;8.338;2023-02-13T04:15:37;102216.69;;;3.40;100.00
10881;BME280;5493;48.884;8.338;2023-02-13T04:18:08;102216.09;;;3.37;100.00
10881;BME280;5493;48.884;8.338;2023-02-13T04:20:37;102211.06;;;3.55;100.00
10881;BME280;5493;48.884;8.338;2023-02-13T04:23:06;102216.53;;;3.53;100.00
10881;BME280;5493;48.884;8.338;2023-02-13T04:25:34;102217.78;;;3.38;100.00
10881;BME280;5493;48.884;8.338;2023-02-13T04:28:02;102216.84;;;3.28;100.00
10881;BME280;5493;48.884;8.338;2023-02-13T04:30:29;102220.34;;;3.39;100.00
10881;BME280;5493;48.884;8.338;2023-02-13T04:32:55;102209.53;;;3.41;100.00
10881;BME280;5493;48.884;8.338;2023-02-13T04:35:22;102215.34;;;3.46;100.00
10881;BME280;5493;48.884;8.338;2023-02-13T04:37:48;102211.78;;;3.25;100.00
10881;BME280;5493;48.884;8.338;2023-02-13T04:40:16;102213.47;;;3.15;100.00
10881;BME280;5493;48.884;8.338;2023-02-13T04:42:43;102215.53;;;3.22;100.00
10881;BME280;5493;48.884;8.338;2023-02-13T04:45:09;102222.47;;;3.14;100.00
10881;BME280;5493;48.884;8.338;2023-02-13T04:47:36;102211.66;;;3.15;100.00
10881;BME280;5493;48.884;8.338;2023-02-13T04:50:03;102215.19;;;3.05;100.00
10881;BME280;5493;48.884;8.338;2023-02-13T04:52:29;102209.78;;;2.73;100.00
10881;BME280;5493;48.884;8.338;2023-02-13T04:54:56;102203.97;;;2.79;100.00
10881;BME280;5493;48.884;8.338;2023-02-13T04:57:23;102204.59;;;2.71;100.00
10881;BME280;5493;48.884;8.338;2023-02-13T04:59:50;102204.44;;;2.95;100.00
10881;BME280;5493;48.884;8.338;2023-02-13T05:02:16;102203.81;;;3.03;100.00
10881;BME280;5493;48.884;8.338;2023-02-13T05:04:43;102201.41;;;3.00;100.00
10881;BME280;5493;48.884;8.338;2023-02-13T05:07:09;102204.09;;;2.88;100.00
10881;BME280;5493;48.884;8.338;2023-02-13T05:09:36;102207.19;;;3.05;100.00
10881;BME280;5493;48.884;8.338;2023-02-13T05:12:03;102206.88;;;2.87;100.00
10881;BME280;5493;48.884;8.338;2023-02-13T05:14:30;102202.03;;;2.47;100.00
10881;BME280;5493;48.884;8.338;2023-02-13T05:16:57;102197.91;;;2.55;100.00
10881;BME280;5493;48.884;8.338;2023-02-13T05:19:23;102203.84;;;2.47;100.00
10881;BME280;5493;48.884;8.338;2023-02-13T05:21:50;102205.53;;;2.37;100.00
10881;BME280;5493;48.884;8.338;2023-02-13T05:24:36;102204.44;;;2.28;100.00
10881;BME280;5493;48.884;8.338;2023-02-13T05:27:03;102200.34;;;2.46;100.00
10881;BME280;5493;48.884;8.338;2023-02-13T05:29:31;102207.34;;;2.47;100.00
10881;BME280;5493;48.884;8.338;2023-02-13T05:31:57;102210.03;;;2.81;100.00
10881;BME280;5493;48.884;8.338;2023-02-13T05:34:25;102207.22;;;2.82;100.00
10881;BME280;5493;48.884;8.338;2023-02-13T05:36:52;102200.94;;;2.83;100.00
10881;BME280;5493;48.884;8.338;2023-02-13T05:39:20;102203.47;;;2.96;100.00
10881;BME280;5493;48.884;8.338;2023-02-13T05:41:47;102211.47;;;3.07;100.00
10881;BME280;5493;48.884;8.338;2023-02-13T05:44:14;102206.25;;;3.06;100.00
10881;BME280;5493;48.884;8.338;2023-02-13T05:46:42;102197.03;;;3.10;100.00
10881;BME280;5493;48.884;8.338;2023-02-13T05:49:11;102200.53;;;3.21;100.00
10881;BME280;5493;48.884;8.338;2023-02-13T05:51:38;102194.97;;;3.13;100.00
10881;BME280;5493;48.884;8.338;2023-02-13T05:54:05;102197.63;;;3.13;100.00
10881;BME280;5493;48.884;8.338;2023-02-13T05:56:31;102203.78;;;3.25;100.00
10881;BME280;5493;48.884;8.338;2023-02-13T05:58:58;102208.78;;;3.07;100.00
10881;BME280;5493;48.884;8.338;2023-02-13T06:01:24;102203.22;;;2.99;100.00
10881;BME280;5493;48.884;8.338;2023-02-13T06:03:52;102208.81;;;2.85;100.00
10881;BME280;5493;48.884;8.338;2023-02-13T06:06:19;102212.69;;;2.92;100.00
10881;BME280;5493;48.884;8.338;2023-02-13T06:08:47;102212.09;;;2.66;100.00
10881;BME280;5493;48.884;8.338;2023-02-13T06:11:13;102214.50;;;2.80;100.00
10881;BME280;5493;48.884;8.338;2023-02-13T06:13:39;102206.34;;;3.04;100.00
10881;BME280;5493;48.884;8.338;2023-02-13T06:16:06;102203.56;;;3.17;100.00
10881;BME280;5493;48.884;8.338;2023-02-13T06:18:33;102216.41;;;3.01;100.00
10881;BME280;5493;48.884;8.338;2023-02-13T06:21:01;102214.25;;;2.72;100.00
10881;BME280;5493;48.884;8.338;2023-02-13T06:23:28;102214.63;;;2.79;100.00
10881;BME280;5493;48.884;8.338;2023-02-13T06:25:55;102216.56;;;2.88;100.00
10881;BME280;5493;48.884;8.338;2023-02-13T06:28:21;102212.69;;;3.03;100.00
10881;BME280;5493;48.884;8.338;2023-02-13T06:30:48;102215.09;;;2.84;100.00
10881;BME280;5493;48.884;8.338;2023-02-13T06:33:14;102221.28;;;2.95;100.00
10881;BME280;5493;48.884;8.338;2023-02-13T06:35:41;102221.78;;;2.78;100.00
10881;BME280;5493;48.884;8.338;2023-02-13T06:38:08;102222.13;;;2.52;100.00
10881;BME280;5493;48.884;8.338;2023-02-13T06:40:35;102217.53;;;2.76;100.00
10881;BME280;5493;48.884;8.338;2023-02-13T06:43:01;102213.88;;;2.99;100.00
10881;BME280;5493;48.884;8.338;2023-02-13T06:45:28;102221.00;;;3.10;100.00
10881;BME280;5493;48.884;8.338;2023-02-13T06:47:54;102221.97;;;3.20;100.00
10881;BME280;5493;48.884;8.338;2023-02-13T06:50:21;102218.84;;;3.04;100.00
10881;BME280;5493;48.884;8.338;2023-02-13T06:52:48;102224.97;;;3.26;100.00
10881;BME280;5493;48.884;8.338;2023-02-13T06:55:17;102232.59;;;3.31;100.00
10881;BME280;5493;48.884;8.338;2023-02-13T06:57:45;102229.94;;;3.31;100.00
10881;BME280;5493;48.884;8.338;2023-02-13T07:00:13;102229.97;;;2.97;100.00
10881;BME280;5493;48.884;8.338;2023-02-13T07:02:40;102238.13;;;2.96;100.00
10881;BME280;5493;48.884;8.338;2023-02-13T07:05:07;102229.97;;;3.09;100.00
10881;BME280;5493;48.884;8.338;2023-02-13T07:07:34;102245.34;;;3.05;100.00
10881;BME280;5493;48.884;8.338;2023-02-13T07:10:01;102245.59;;;3.24;100.00
10881;BME280;5493;48.884;8.338;2023-02-13T07:12:29;102250.91;;;3.24;100.00
10881;BME280;5493;48.884;8.338;2023-02-13T07:14:57;102260.03;;;3.22;100.00
10881;BME280;5493;48.884;8.338;2023-02-13T07:17:24;102259.78;;;3.14;100.00
10881;BME280;5493;48.884;8.338;2023-02-13T07:19:51;102261.22;;;3.18;100.00
10881;BME280;5493;48.884;8.338;2023-02-13T07:22:18;102259.16;;;3.32;100.00
10881;BME280;5493;48.884;8.338;2023-02-13T07:24:44;102257.84;;;3.59;100.00
10881;BME280;5493;48.884;8.338;2023-02-13T07:27:11;102262.25;;;3.48;100.00
10881;BME280;5493;48.884;8.338;2023-02-13T07:29:39;102268.38;;;3.71;100.00
10881;BME280;5493;48.884;8.338;2023-02-13T07:32:05;102274.75;;;3.80;100.00
10881;BME280;5493;48.884;8.338;2023-02-13T07:34:33;102275.78;;;3.68;100.00
10881;BME280;5493;48.884;8.338;2023-02-13T07:36:59;102275.75;;;3.79;100.00
10881;BME280;5493;48.884;8.338;2023-02-13T07:39:26;102283.22;;;3.53;100.00
10881;BME280;5493;48.884;8.338;2023-02-13T07:41:52;102281.56;;;3.73;100.00
10881;BME280;5493;48.884;8.338;2023-02-13T07:44:19;102280.41;;;3.55;100.00
10881;BME280;5493;48.884;8.338;2023-02-13T07:46:46;102269.72;;;3.55;100.00
10881;BME280;5493;48.884;8.338;2023-02-13T07:49:13;102276.28;;;3.62;100.00
10881;BME280;5493;48.884;8.338;2023-02-13T07:51:39;102288.72;;;3.83;100.00
10881;BME280;5493;48.884;8.338;2023-02-13T07:54:06;102282.53;;;3.83;100.00
10881;BME280;5493;48.884;8.338;2023-02-13T07:56:32;102281.97;;;4.00;100.00
10881;BME280;5493;48.884;8.338;2023-02-13T07:58:59;102280.72;;;4.04;100.00
10881;BME280;5493;48.884;8.338;2023-02-13T08:01:25;102283.47;;;4.14;100.00
10881;BME280;5493;48.884;8.338;2023-02-13T08:03:53;102289.06;;;4.11;100.00
10881;BME280;5493;48.884;8.338;2023-02-13T08:06:20;102287.25;;;4.11;100.00
10881;BME280;5493;48.884;8.338;2023-02-13T08:08:47;102276.84;;;4.29;100.00
10881;BME280;5493;48.884;8.338;2023-02-13T08:11:33;102285.44;;;4.32;100.00
10881;BME280;5493;48.884;8.338;2023-02-13T08:14:17;102289.22;;;3.98;100.00
10881;BME280;5493;48.884;8.338;2023-02-13T08:16:44;102298.31;;;4.07;100.00
10881;BME280;5493;48.884;8.338;2023-02-13T08:19:12;102297.97;;;4.00;100.00
10881;BME280;5493;48.884;8.338;2023-02-13T08:21:38;102295.97;;;3.81;100.00
10881;BME280;5493;48.884;8.338;2023-02-13T08:24:05;102296.28;;;3.56;100.00
10881;BME280;5493;48.884;8.338;2023-02-13T08:26:32;102295.75;;;3.73;100.00
10881;BME280;5493;48.884;8.338;2023-02-13T08:28:59;102289.53;;;3.84;100.00
10881;BME280;5493;48.884;8.338;2023-02-13T08:31:26;102288.59;;;3.74;100.00
10881;BME280;5493;48.884;8.338;2023-02-13T08:33:52;102290.81;;;4.01;100.00
10881;BME280;5493;48.884;8.338;2023-02-13T08:36:20;102289.38;;;3.65;100.00
10881;BME280;5493;48.884;8.338;2023-02-13T08:38:47;102293.91;;;3.85;100.00
10881;BME280;5493;48.884;8.338;2023-02-13T08:41:14;102294.88;;;4.16;100.00
10881;BME280;5493;48.884;8.338;2023-02-13T08:43:42;102293.63;;;4.20;100.00
10881;BME280;5493;48.884;8.338;2023-02-13T08:46:08;102294.88;;;4.16;100.00
10881;BME280;5493;48.884;8.338;2023-02-13T08:48:35;102295.69;;;4.16;100.00
10881;BME280;5493;48.884;8.338;2023-02-13T08:51:04;102294.03;;;4.15;100.00
10881;BME280;5493;48.884;8.338;2023-02-13T08:53:35;102290.63;;;3.81;100.00
10881;BME280;5493;48.884;8.338;2023-02-13T08:56:02;102290.59;;;3.61;100.00
10881;BME280;5493;48.884;8.338;2023-02-13T08:58:29;102295.13;;;3.81;100.00
10881;BME280;5493;48.884;8.338;2023-02-13T09:00:56;102298.84;;;3.58;100.00
10881;BME280;5493;48.884;8.338;2023-02-13T09:03:23;102299.09;;;3.97;100.00
10881;BME280;5493;48.884;8.338;2023-02-13T09:05:49;102299.38;;;4.15;100.00
10881;BME280;5493;48.884;8.338;2023-02-13T09:08:16;102303.25;;;4.11;100.00
10881;BME280;5493;48.884;8.338;2023-02-13T09:10:43;102307.03;;;4.09;100.00
10881;BME280;5493;48.884;8.338;2023-02-13T09:13:10;102301.63;;;4.20;100.00
10881;BME280;5493;48.884;8.338;2023-02-13T09:15:38;102297.16;;;4.41;100.00
10881;BME280;5493;48.884;8.338;2023-02-13T09:18:05;102300.72;;;4.10;100.00
10881;BME280;5493;48.884;8.338;2023-02-13T09:20:32;102288.03;;;4.43;100.00
10881;BME280;5493;48.884;8.338;2023-02-13T09:22:58;102296.97;;;4.33;100.00
10881;BME280;5493;48.884;8.338;2023-02-13T09:25:25;102291.88;;;4.51;100.00
10881;BME280;5493;48.884;8.338;2023-02-13T09:27:53;102294.31;;;4.84;100.00
10881;BME280;5493;48.884;8.338;2023-02-13T09:30:20;102291.66;;;4.84;100.00
10881;BME280;5493;48.884;8.338;2023-02-13T09:32:48;102291.00;;;4.91;100.00
10881;BME280;5493;48.884;8.338;2023-02-13T09:35:15;102293.59;;;4.82;100.00
10881;BME280;5493;48.884;8.338;2023-02-13T09:37:42;102293.16;;;5.07;100.00
10881;BME280;5493;48.884;8.338;2023-02-13T09:40:15;102295.66;;;4.99;100.00
10881;BME280;5493;48.884;8.338;2023-02-13T09:42:43;102301.69;;;4.91;100.00
10881;BME280;5493;48.884;8.338;2023-02-13T09:45:12;102306.00;;;4.83;100.00
10881;BME280;5493;48.884;8.338;2023-02-13T09:47:41;102306.31;;;5.20;100.00
10881;BME280;5493;48.884;8.338;2023-02-13T09:50:12;102306.09;;;5.42;100.00
10881;BME280;5493;48.884;8.338;2023-02-13T09:52:42;102310.59;;;5.41;100.00
10881;BME280;5493;48.884;8.338;2023-02-13T09:55:14;102311.75;;;5.49;100.00
10881;BME280;5493;48.884;8.338;2023-02-13T09:57:43;102312.44;;;5.11;100.00
10881;BME280;5493;48.884;8.338;2023-02-13T10:00:19;102319.97;;;5.26;100.00
10881;BME280;5493;48.884;8.338;2023-02-13T10:02:53;102312.91;;;5.25;100.00
10881;BME280;5493;48.884;8.338;2023-02-13T10:05:37;102316.34;;;5.07;100.00
10881;BME280;5493;48.884;8.338;2023-02-13T10:08:18;102324.81;;;4.81;100.00
10881;BME280;5493;48.884;8.338;2023-02-13T10:10:51;102319.66;;;4.89;100.00
10881;BME280;5493;48.884;8.338;2023-02-13T10:13:30;102329.13;;;4.93;100.00
10881;BME280;5493;48.884;8.338;2023-02-13T10:16:06;102332.28;;;5.08;100.00
10881;BME280;5493;48.884;8.338;2023-02-13T10:18:42;102329.44;;;5.30;100.00
10881;BME280;5493;48.884;8.338;2023-02-13T10:21:11;102322.78;;;5.74;100.00
10881;BME280;5493;48.884;8.338;2023-02-13T10:23:41;102322.91;;;5.63;100.00
10881;BME280;5493;48.884;8.338;2023-02-13T10:26:12;102319.09;;;5.56;100.00
10881;BME280;5493;48.884;8.338;2023-02-13T10:28:43;102315.84;;;5.53;100.00
10881;BME280;5493;48.884;8.338;2023-02-13T10:31:33;102322.06;;;5.72;100.00
10881;BME280;5493;48.884;8.338;2023-02-13T10:34:02;102315.94;;;6.20;100.00
10881;BME280;5493;48.884;8.338;2023-02-13T10:36:33;102312.13;;;6.32;100.00
10881;BME280;5493;48.884;8.338;2023-02-13T10:39:22;102308.47;;;6.33;100.00
10881;BME280;5493;48.884;8.338;2023-02-13T10:41:52;102322.13;;;6.49;100.00
10881;BME280;5493;48.884;8.338;2023-02-13T10:44:43;102307.16;;;6.56;100.00
10881;BME280;5493;48.884;8.338;2023-02-13T10:47:28;102307.13;;;6.66;100.00
10881;BME280;5493;48.884;8.338;2023-02-13T10:50:08;102306.59;;;6.53;100.00
10881;BME280;5493;48.884;8.338;2023-02-13T10:52:46;102304.50;;;6.08;100.00
10881;BME280;5493;48.884;8.338;2023-02-13T10:55:27;102306.16;;;5.71;100.00
10881;BME280;5493;48.884;8.338;2023-02-13T10:58:07;102299.03;;;5.90;100.00
10881;BME280;5493;48.884;8.338;2023-02-13T11:00:37;102290.53;;;5.85;100.00
10881;BME280;5493;48.884;8.338;2023-02-13T11:03:15;102303.13;;;6.14;100.00
10881;BME280;5493;48.884;8.338;2023-02-13T11:05:42;102306.13;;;5.61;100.00
10881;BME280;5493;48.884;8.338;2023-02-13T11:08:16;102304.25;;;5.92;100.00
10881;BME280;5493;48.884;8.338;2023-02-13T11:10:43;102296.88;;;5.75;100.00
10881;BME280;5493;48.884;8.338;2023-02-13T11:13:19;102302.75;;;5.69;100.00
10881;BME280;5493;48.884;8.338;2023-02-13T11:15:57;102299.72;;;6.02;100.00
10881;BME280;5493;48.884;8.338;2023-02-13T11:18:26;102292.97;;;6.17;100.00
10881;BME280;5493;48.884;8.338;2023-02-13T11:20:58;102292.34;;;5.75;100.00
10881;BME280;5493;48.884;8.338;2023-02-13T11:23:36;102292.81;;;6.09;100.00
10881;BME280;5493;48.884;8.338;2023-02-13T11:26:06;102283.94;;;6.28;100.00
10881;BME280;5493;48.884;8.338;2023-02-13T11:28:37;102292.50;;;6.41;100.00
10881;BME280;5493;48.884;8.338;2023-02-13T11:31:13;102281.16;;;6.76;100.00
10881;BME280;5493;48.884;8.338;2023-02-13T11:33:40;102280.78;;;6.61;100.00
10881;BME280;5493;48.884;8.338;2023-02-13T11:36:08;102276.38;;;6.70;100.00
10881;BME280;5493;48.884;8.338;2023-02-13T11:38:35;102268.56;;;7.23;100.00
10881;BME280;5493;48.884;8.338;2023-02-13T11:41:07;102270.03;;;7.08;100.00
10881;BME280;5493;48.884;8.338;2023-02-13T11:43:43;102268.50;;;7.32;100.00
10881;BME280;5493;48.884;8.338;2023-02-13T11:46:17;102263.81;;;7.34;100.00
10881;BME280;5493;48.884;8.338;2023-02-13T11:48:55;102253.41;;;7.49;100.00
10881;BME280;5493;48.884;8.338;2023-02-13T11:51:34;102258.06;;;7.92;100.00
10881;BME280;5493;48.884;8.338;2023-02-13T11:54:00;102255.91;;;7.96;100.00
10881;BME280;5493;48.884;8.338;2023-02-13T11:56:27;102255.16;;;8.47;100.00
10881;BME280;5493;48.884;8.338;2023-02-13T11:59:00;102245.28;;;8.81;100.00
10881;BME280;5493;48.884;8.338;2023-02-13T12:01:28;102245.38;;;9.39;100.00
10881;BME280;5493;48.884;8.338;2023-02-13T12:04:00;102235.03;;;10.01;100.00
10881;BME280;5493;48.884;8.338;2023-02-13T12:06:27;102229.50;;;10.34;100.00
10881;BME280;5493;48.884;8.338;2023-02-13T12:08:54;102235.28;;;10.78;100.00
10881;BME280;5493;48.884;8.338;2023-02-13T12:11:23;102226.72;;;11.98;100.00
10881;BME280;5493;48.884;8.338;2023-02-13T12:13:54;102231.84;;;11.93;100.00
10881;BME280;5493;48.884;8.338;2023-02-13T12:16:29;102230.81;;;11.02;100.00
10881;BME280;5493;48.884;8.338;2023-02-13T12:18:59;102233.22;;;11.35;100.00
10881;BME280;5493;48.884;8.338;2023-02-13T12:21:39;102229.69;;;11.89;100.00
10881;BME280;5493;48.884;8.338;2023-02-13T12:24:12;102229.44;;;11.98;100.00
10881;BME280;5493;48.884;8.338;2023-02-13T12:26:46;102227.94;;;11.73;100.00
10881;BME280;5493;48.884;8.338;2023-02-13T12:29:33;102230.94;;;12.01;100.00
10881;BME280;5493;48.884;8.338;2023-02-13T12:32:10;102229.44;;;11.75;100.00
10881;BME280;5493;48.884;8.338;2023-02-13T12:35:04;102224.44;;;11.87;100.00
10881;BME280;5493;48.884;8.338;2023-02-13T12:37:51;102220.16;;;11.70;100.00
10881;BME280;5493;48.884;8.338;2023-02-13T12:40:39;102216.16;;;11.89;100.00
10881;BME280;5493;48.884;8.338;2023-02-13T12:43:28;102208.91;;;11.58;100.00
10881;BME280;5493;48.884;8.338;2023-02-13T12:46:01;102210.63;;;12.57;100.00
10881;BME280;5493;48.884;8.338;2023-02-13T12:48:39;102202.88;;;12.39;100.00
10881;BME280;5493;48.884;8.338;2023-02-13T12:51:26;102206.84;;;12.28;100.00
10881;BME280;5493;48.884;8.338;2023-02-13T12:54:08;102205.84;;;13.17;100.00
10881;BME280;5493;48.884;8.338;2023-02-13T12:56:58;102203.28;;;12.65;100.00
10881;BME280;5493;48.884;8.338;2023-02-13T12:59:37;102201.16;;;12.23;100.00
10881;BME280;5493;48.884;8.338;2023-02-13T13:02:35;102202.50;;;12.57;100.00
10881;BME280;5493;48.884;8.338;2023-02-13T13:05:15;102189.72;;;12.80;100.00
10881;BME280;5493;48.884;8.338;2023-02-13T13:08:04;102199.13;;;12.25;100.00
10881;BME280;5493;48.884;8.338;2023-02-13T13:10:44;102195.50;;;12.77;100.00
10881;BME280;5493;48.884;8.338;2023-02-13T13:13:21;102193.34;;;13.02;100.00
10881;BME280;5493;48.884;8.338;2023-02-13T13:15:54;102190.66;;;13.52;100.00
10881;BME280;5493;48.884;8.338;2023-02-13T13:18:32;102187.56;;;12.31;100.00
10881;BME280;5493;48.884;8.338;2023-02-13T13:21:16;102194.69;;;12.62;100.00
10881;BME280;5493;48.884;8.338;2023-02-13T13:23:52;102197.38;;;12.47;100.00
10881;BME280;5493;48.884;8.338;2023-02-13T13:26:24;102202.88;;;12.54;100.00